Time;durP1;ratioP1;P1;durP2;ratioP2;P2;SDS_P1;SDS_P2;PMS_P1;PMS_P2;Temp;Humidity;BMP_temperature;BMP_pressure;BME280_temperature;BME280_humidity;BME280_pressure;Samples;Min_cycle;Max_cycle;Signal;HPM_P1;HPM_P2
2024/04/06 00:00:28;;;;;;;2.13;1.53;;;9.80;99.90;;;;;;2031683;29;20683;-76
2024/04/06 00:01:28;;;;;;;3.03;1.50;;;9.80;99.90;;;;;;2031273;29;20721;-76
2024/04/06 00:02:29;;;;;;;3.87;1.80;;;9.80;99.90;;;;;;2031357;29;20665;-76
2024/04/06 00:03:29;;;;;;;2.17;1.80;;;9.90;99.90;;;;;;2031420;29;20580;-76
2024/04/06 00:04:31;;;;;;;2.13;1.50;;;9.80;99.90;;;;;;2032315;29;20615;-76
2024/04/06 00:05:31;;;;;;;4.35;1.98;;;9.70;99.90;;;;;;2032768;29;20236;-76
2024/04/06 00:06:32;;;;;;;5.70;1.80;;;9.70;99.90;;;;;;2032588;29;20264;-76
2024/04/06 00:07:32;;;;;;;1.73;1.53;;;9.70;99.90;;;;;;2031853;29;20323;-76
2024/04/06 00:08:33;;;;;;;3.30;1.73;;;9.70;99.90;;;;;;2031396;29;20330;-76
2024/04/06 00:09:34;;;;;;;3.00;1.83;;;9.60;99.90;;;;;;2032740;29;20236;-76
2024/04/06 00:10:34;;;;;;;4.03;1.80;;;9.60;99.90;;;;;;2031661;29;20335;-77
2024/04/06 00:11:35;;;;;;;2.30;1.70;;;9.60;99.90;;;;;;2031620;29;20260;-76
2024/04/06 00:12:35;;;;;;;3.77;1.50;;;9.50;99.90;;;;;;2032836;29;20275;-76
2024/04/06 00:13:36;;;;;;;1.80;1.70;;;9.50;99.90;;;;;;2032471;29;20229;-76
2024/04/06 00:14:37;;;;;;;2.28;1.60;;;9.50;99.90;;;;;;2031822;29;20232;-76
2024/04/06 00:15:37;;;;;;;2.33;1.60;;;9.50;99.90;;;;;;2033163;29;20268;-76
2024/04/06 00:16:38;;;;;;;1.70;1.60;;;9.50;99.90;;;;;;2033104;29;20247;-76
2024/04/06 00:17:39;;;;;;;1.63;1.37;;;9.50;99.90;;;;;;2032418;29;20236;-76
2024/04/06 00:18:39;;;;;;;2.03;1.50;;;9.40;99.90;;;;;;2031166;29;20339;-76
2024/04/06 00:19:40;;;;;;;3.10;1.63;;;9.40;99.90;;;;;;2032547;29;20247;-76
2024/04/06 00:20:40;;;;;;;1.47;1.37;;;9.50;99.90;;;;;;2032405;29;20765;-76
2024/04/06 00:21:41;;;;;;;2.30;1.60;;;9.50;99.90;;;;;;2032304;29;20228;-76
2024/04/06 00:22:42;;;;;;;3.40;1.57;;;9.50;99.90;;;;;;2031245;29;20308;-76
2024/04/06 00:23:42;;;;;;;2.07;1.43;;;9.50;99.90;;;;;;2032216;29;20286;-76
2024/04/06 00:24:43;;;;;;;3.43;1.60;;;9.40;99.90;;;;;;2029003;29;20729;-77
2024/04/06 00:25:43;;;;;;;3.20;1.70;;;9.40;99.90;;;;;;2027062;29;20236;-76
2024/04/06 00:26:44;;;;;;;2.10;1.50;;;9.40;99.90;;;;;;2031262;29;20264;-76
2024/04/06 00:27:45;;;;;;;2.10;1.90;;;9.60;99.90;;;;;;2032495;29;20619;-77
2024/04/06 00:28:45;;;;;;;4.43;1.57;;;9.40;99.90;;;;;;2030981;29;20268;-76
2024/04/06 00:29:46;;;;;;;3.43;1.90;;;9.40;99.90;;;;;;2031062;29;20229;-77
2024/04/06 00:30:46;;;;;;;1.87;1.60;;;9.40;99.90;;;;;;2028058;29;20225;-76
2024/04/06 00:31:47;;;;;;;2.60;1.63;;;9.30;99.90;;;;;;2027057;29;20228;-76
2024/04/06 00:32:47;;;;;;;3.30;1.70;;;9.20;99.90;;;;;;2032609;29;20229;-76
2024/04/06 00:33:48;;;;;;;2.87;1.57;;;9.30;99.90;;;;;;2031218;29;20252;-76
2024/04/06 00:34:48;;;;;;;1.83;1.57;;;9.30;99.90;;;;;;2031764;29;20228;-76
2024/04/06 00:35:49;;;;;;;4.70;1.70;;;9.20;99.90;;;;;;2026211;29;20293;-76
2024/04/06 00:36:50;;;;;;;1.93;1.70;;;9.30;99.90;;;;;;2027523;29;20280;-76
2024/04/06 00:37:51;;;;;;;1.98;1.52;;;9.30;99.90;;;;;;2032314;29;20697;-76
2024/04/06 00:38:52;;;;;;;2.30;1.50;;;9.20;99.90;;;;;;2031208;29;20267;-76
2024/04/06 00:39:52;;;;;;;3.63;1.73;;;9.20;99.90;;;;;;2031362;29;20640;-77
2024/04/06 00:40:53;;;;;;;1.60;1.50;;;9.10;99.90;;;;;;2029486;29;20696;-77
2024/04/06 00:41:53;;;;;;;2.90;1.73;;;9.10;99.90;;;;;;2031470;29;20305;-76
2024/04/06 00:42:54;;;;;;;3.70;1.73;;;8.90;99.90;;;;;;2031220;29;20296;-76
2024/04/06 00:43:54;;;;;;;3.10;1.97;;;9.00;99.90;;;;;;2031819;29;20227;-76
2024/04/06 00:44:55;;;;;;;2.87;1.57;;;8.80;99.90;;;;;;2031627;29;20259;-76
2024/04/06 00:45:56;;;;;;;1.90;1.47;;;8.90;99.90;;;;;;2031518;29;20259;-76
2024/04/06 00:47:01;;;;;;;3.47;1.90;;;8.80;99.90;;;;;;2031843;29;20233;-76
2024/04/06 00:48:03;;;;;;;2.58;1.70;;;8.90;99.90;;;;;;2030103;29;20254;-76
2024/04/06 00:49:04;;;;;;;6.43;2.30;;;8.90;99.90;;;;;;2030788;29;20197;-76
2024/04/06 00:50:09;;;;;;;2.90;1.97;;;8.80;99.90;;;;;;2030540;29;20279;-76
2024/04/06 00:51:10;;;;;;;2.47;1.70;;;8.90;99.90;;;;;;2031675;29;20276;-76
2024/04/06 00:52:10;;;;;;;1.70;1.60;;;8.80;99.90;;;;;;2032285;29;20252;-76
2024/04/06 00:53:11;;;;;;;2.50;1.70;;;8.80;99.90;;;;;;2031133;29;20203;-76
2024/04/06 00:54:12;;;;;;;2.43;1.87;;;8.80;99.90;;;;;;2031438;29;20220;-76
2024/04/06 00:55:12;;;;;;;2.83;1.77;;;8.80;99.90;;;;;;2030912;29;20211;-76
2024/04/06 00:56:13;;;;;;;2.70;2.00;;;8.90;99.90;;;;;;2030724;29;20227;-76
2024/04/06 00:57:14;;;;;;;3.47;1.93;;;8.80;99.90;;;;;;2031331;29;20204;-76
2024/04/06 00:58:16;;;;;;;4.37;1.63;;;8.80;99.90;;;;;;2030933;29;20185;-76
2024/04/06 00:59:17;;;;;;;2.65;1.83;;;8.80;99.90;;;;;;2031535;29;20234;-76
2024/04/06 01:00:18;;;;;;;4.80;2.13;;;8.80;99.90;;;;;;2022731;29;21000;-76
2024/04/06 01:01:19;;;;;;;2.33;1.60;;;8.80;99.90;;;;;;2021900;29;20182;-76
2024/04/06 01:02:20;;;;;;;2.95;1.50;;;8.70;99.90;;;;;;2031345;29;20196;-76
2024/04/06 01:03:21;;;;;;;2.07;1.70;;;8.70;99.90;;;;;;2030199;29;20340;-76
2024/04/06 01:04:21;;;;;;;3.13;1.67;;;8.60;99.90;;;;;;2030376;29;20279;-77
2024/04/06 01:05:22;;;;;;;3.77;1.90;;;8.60;99.90;;;;;;2030438;29;20237;-77
2024/04/06 01:06:23;;;;;;;3.27;1.50;;;8.70;99.90;;;;;;2031329;29;20220;-76
2024/04/06 01:07:23;;;;;;;2.40;1.80;;;8.60;99.90;;;;;;2032060;29;20714;-76
2024/04/06 01:08:24;;;;;;;2.27;1.90;;;8.60;99.90;;;;;;2030028;29;20339;-75
2024/04/06 01:09:25;;;;;;;2.20;1.70;;;8.60;99.90;;;;;;2030528;29;20307;-76
2024/04/06 01:10:26;;;;;;;4.63;2.07;;;8.60;99.90;;;;;;2030577;29;20308;-76
2024/04/06 01:11:27;;;;;;;2.67;1.95;;;8.70;99.90;;;;;;2031145;29;20264;-76
2024/04/06 01:12:28;;;;;;;2.17;1.73;;;8.60;99.90;;;;;;2030823;29;20227;-77
2024/04/06 01:13:29;;;;;;;2.27;1.70;;;8.60;99.90;;;;;;2030037;29;20239;-75
2024/04/06 01:14:29;;;;;;;1.90;1.40;;;8.60;99.90;;;;;;2032156;29;20259;-76
2024/04/06 01:15:34;;;;;;;3.13;1.60;;;8.60;99.90;;;;;;2030576;29;20299;-76
2024/04/06 01:16:35;;;;;;;2.25;1.73;;;8.60;99.90;;;;;;2025638;29;20814;-75
2024/04/06 01:17:35;;;;;;;2.60;2.00;;;8.60;99.90;;;;;;2027635;29;20282;-76
2024/04/06 01:18:36;;;;;;;3.23;1.60;;;8.60;99.90;;;;;;2030113;29;20284;-76
2024/04/06 01:19:36;;;;;;;2.77;1.87;;;8.60;99.90;;;;;;2031107;29;20245;-76
2024/04/06 01:20:41;;;;;;;2.37;1.63;;;8.50;99.90;;;;;;2030522;29;20243;-76
2024/04/06 01:21:42;;;;;;;5.60;1.80;;;8.50;99.90;;;;;;2030243;29;20729;-76
2024/04/06 01:22:43;;;;;;;2.07;1.70;;;8.60;99.90;;;;;;2026431;29;20335;-76
2024/04/06 01:23:44;;;;;;;2.87;1.90;;;8.60;99.90;;;;;;2026045;29;20353;-76
2024/04/06 01:24:44;;;;;;;2.30;1.70;;;8.60;99.90;;;;;;2029289;29;20322;-76
2024/04/06 01:25:45;;;;;;;5.00;1.70;;;8.50;99.90;;;;;;2028203;29;20264;-76
2024/04/06 01:26:45;;;;;;;1.87;1.73;;;8.50;99.90;;;;;;2025729;29;20261;-76
2024/04/06 01:27:46;;;;;;;3.07;1.40;;;8.50;99.90;;;;;;2022100;29;20441;-76
2024/04/06 01:28:47;;;;;;;2.70;1.80;;;8.50;99.90;;;;;;2022749;29;20228;-76
2024/04/06 01:29:47;;;;;;;2.37;1.53;;;8.50;99.90;;;;;;2029992;29;20264;-76
2024/04/06 01:30:48;;;;;;;2.40;1.93;;;8.40;99.90;;;;;;2030771;29;20232;-76
2024/04/06 01:31:48;;;;;;;2.40;1.70;;;8.50;99.90;;;;;;2030413;29;20236;-76
2024/04/06 01:32:51;;;;;;;4.40;1.80;;;8.50;99.90;;;;;;2027597;29;20240;-76
2024/04/06 01:33:51;;;;;;;11.35;2.45;;;8.50;99.90;;;;;;2032998;29;20724;-76
2024/04/06 01:34:52;;;;;;;2.90;1.73;;;8.40;99.90;;;;;;2039024;29;20330;-76
2024/04/06 01:35:52;;;;;;;2.63;1.60;;;8.40;99.90;;;;;;2029854;29;20228;-76
2024/04/06 01:36:53;;;;;;;2.20;1.70;;;8.50;99.90;;;;;;2030083;29;20242;-76
2024/04/06 01:37:53;;;;;;;2.30;1.50;;;8.40;99.90;;;;;;2030590;29;20236;-76
2024/04/06 01:38:54;;;;;;;2.33;1.70;;;8.30;99.90;;;;;;2028418;29;20235;-76
2024/04/06 01:39:54;;;;;;;2.70;1.70;;;8.30;99.90;;;;;;2029845;29;20271;-76
2024/04/06 01:40:55;;;;;;;3.10;2.07;;;8.30;99.90;;;;;;2030015;29;20232;-76
2024/04/06 01:41:55;;;;;;;2.23;1.50;;;8.30;99.90;;;;;;2030457;29;20235;-76
2024/04/06 01:42:56;;;;;;;4.00;1.70;;;8.30;99.90;;;;;;2030038;29;20284;-76
2024/04/06 01:43:57;;;;;;;1.97;1.50;;;8.20;99.90;;;;;;2029444;29;20487;-76
2024/04/06 01:44:58;;;;;;;2.63;1.70;;;8.20;99.90;;;;;;2031786;29;20235;-76
2024/04/06 01:45:58;;;;;;;2.93;1.70;;;8.30;99.90;;;;;;2029906;29;20224;-76
2024/04/06 01:46:59;;;;;;;2.17;1.73;;;8.30;99.90;;;;;;2030210;29;20231;-76
2024/04/06 01:47:59;;;;;;;3.47;1.37;;;8.20;99.90;;;;;;2030098;29;20294;-76
2024/04/06 01:49:00;;;;;;;5.27;1.97;;;8.10;99.90;;;;;;2030548;29;20697;-76
2024/04/06 01:50:04;;;;;;;3.00;1.87;;;8.10;99.90;;;;;;2029761;29;20227;-77
2024/04/06 01:51:05;;;;;;;2.78;1.90;;;8.10;99.90;;;;;;2030957;29;20211;-76
2024/04/06 01:52:06;;;;;;;1.80;1.70;;;8.20;99.90;;;;;;2029634;29;20300;-76
2024/04/06 01:53:06;;;;;;;2.70;1.90;;;8.20;99.90;;;;;;2022056;29;20200;-76
2024/04/06 01:54:07;;;;;;;2.77;1.70;;;8.20;99.90;;;;;;2030250;29;20201;-76
2024/04/06 01:55:07;;;;;;;3.30;1.90;;;8.20;99.90;;;;;;2030396;29;20184;-76
2024/04/06 01:56:08;;;;;;;4.50;1.80;;;8.20;99.90;;;;;;2031009;29;20273;-76
2024/04/06 01:57:08;;;;;;;3.80;1.80;;;8.20;99.90;;;;;;2031094;29;20228;-76
2024/04/06 01:58:09;;;;;;;1.70;1.60;;;8.10;99.90;;;;;;2029902;29;20196;-75
2024/04/06 01:59:09;;;;;;;3.07;1.50;;;8.10;99.90;;;;;;2030511;29;20229;-76
2024/04/06 02:00:11;;;;;;;2.17;1.83;;;8.10;99.90;;;;;;2029398;29;20196;-76
2024/04/06 02:01:15;;;;;;;2.08;1.50;;;8.10;99.90;;;;;;2029969;29;20246;-76
2024/04/06 02:02:15;;;;;;;2.92;2.10;;;8.10;99.90;;;;;;2031708;29;20658;-76
2024/04/06 02:03:16;;;;;;;2.00;1.80;;;8.10;99.90;;;;;;2029220;29;20187;-76
2024/04/06 02:04:16;;;;;;;2.10;1.90;;;8.10;99.90;;;;;;2029862;29;20185;-76
2024/04/06 02:05:17;;;;;;;3.10;2.17;;;8.10;99.90;;;;;;2030555;29;20182;-77
2024/04/06 02:06:18;;;;;;;2.90;1.90;;;8.10;99.90;;;;;;2030077;29;20216;-76
2024/04/06 02:07:19;;;;;;;2.25;1.70;;;8.10;99.90;;;;;;2030265;29;20205;-76
2024/04/06 02:08:20;;;;;;;3.03;1.73;;;8.00;99.90;;;;;;2029808;29;20196;-76
2024/04/06 02:09:20;;;;;;;1.70;1.60;;;8.00;99.90;;;;;;2031538;29;20313;-76
2024/04/06 02:10:21;;;;;;;3.27;1.97;;;7.90;99.90;;;;;;2026429;29;20235;-76
2024/04/06 02:11:21;;;;;;;3.07;1.77;;;7.80;99.90;;;;;;2029656;29;20236;-76
2024/04/06 02:12:23;;;;;;;1.80;1.60;;;7.80;99.90;;;;;;2029170;29;20259;-76
2024/04/06 02:13:24;;;;;;;4.05;2.00;;;7.90;99.90;;;;;;2021233;29;20233;-75
2024/04/06 02:14:24;;;;;;;4.03;1.83;;;7.90;99.90;;;;;;2022739;29;20333;-76
2024/04/06 02:15:25;;;;;;;2.00;1.80;;;7.90;99.90;;;;;;2030991;29;20243;-76
2024/04/06 02:16:25;;;;;;;1.83;1.50;;;7.90;99.90;;;;;;2022924;29;20248;-76
2024/04/06 02:17:26;;;;;;;1.77;1.53;;;7.90;99.90;;;;;;2022375;29;20237;-76
2024/04/06 02:18:26;;;;;;;3.33;2.17;;;7.90;99.90;;;;;;2029355;29;20268;-76
2024/04/06 02:19:27;;;;;;;1.83;1.63;;;7.90;99.90;;;;;;2029123;29;20288;-76
2024/04/06 02:20:27;;;;;;;1.93;1.60;;;7.90;99.90;;;;;;2029530;29;20251;-76
2024/04/06 02:21:28;;;;;;;3.03;1.73;;;7.80;99.90;;;;;;2021014;29;20241;-76
2024/04/06 02:22:29;;;;;;;2.43;1.50;;;7.80;99.90;;;;;;2021650;29;20238;-76
2024/04/06 02:23:29;;;;;;;4.73;1.93;;;7.80;99.90;;;;;;2020903;29;20280;-76
2024/04/06 02:24:30;;;;;;;4.60;1.97;;;7.70;99.90;;;;;;2022831;29;20255;-76
2024/04/06 02:25:32;;;;;;;2.05;1.70;;;7.70;99.90;;;;;;2028803;29;20236;-76
2024/04/06 02:26:32;;;;;;;2.00;1.80;;;7.80;99.90;;;;;;2030201;29;20713;-76
2024/04/06 02:27:33;;;;;;;2.07;1.67;;;7.80;99.90;;;;;;2029000;29;20236;-76
2024/04/06 02:28:35;;;;;;;1.53;1.40;;;7.80;99.90;;;;;;2029004;29;20241;-76
2024/04/06 02:29:36;;;;;;;2.55;1.70;;;7.80;99.90;;;;;;2021506;29;20239;-76
2024/04/06 02:30:37;;;;;;;4.03;1.83;;;7.70;99.90;;;;;;2021518;29;20237;-76
2024/04/06 02:31:37;;;;;;;2.53;1.75;;;7.80;99.90;;;;;;2030004;29;20315;-76
2024/04/06 02:32:38;;;;;;;2.20;1.50;;;7.80;99.90;;;;;;2029644;29;20246;-76
2024/04/06 02:33:39;;;;;;;2.87;1.30;;;7.70;99.90;;;;;;2025813;29;20328;-76
2024/04/06 02:34:39;;;;;;;1.70;1.40;;;7.70;99.90;;;;;;2025658;29;20953;-76
2024/04/06 02:35:40;;;;;;;3.10;1.70;;;7.70;99.90;;;;;;2028763;29;20304;-76
2024/04/06 02:36:41;;;;;;;2.37;1.50;;;7.70;99.90;;;;;;2022175;29;20326;-76
2024/04/06 02:37:45;;;;;;;2.50;1.70;;;7.70;99.90;;;;;;2021386;29;20241;-76
2024/04/06 02:38:48;;;;;;;2.40;1.30;;;7.80;99.90;;;;;;2032546;29;20239;-76
2024/04/06 02:39:49;;;;;;;2.20;1.63;;;7.80;99.90;;;;;;2025626;29;20313;-76
2024/04/06 02:40:50;;;;;;;2.90;1.50;;;7.80;99.90;;;;;;2012304;29;20242;-76
2024/04/06 02:41:51;;;;;;;3.10;1.60;;;7.90;99.90;;;;;;2021459;29;20233;-76
2024/04/06 02:42:52;;;;;;;2.20;1.70;;;8.00;99.90;;;;;;2021034;29;20313;-76
2024/04/06 02:43:53;;;;;;;2.25;1.42;;;8.00;99.90;;;;;;2018083;29;20861;-76
2024/04/06 02:44:54;;;;;;;2.90;2.07;;;7.90;99.90;;;;;;2018644;29;20236;-76
2024/04/06 02:45:55;;;;;;;2.30;1.70;;;8.00;99.90;;;;;;2013592;29;20812;-76
2024/04/06 02:46:55;;;;;;;2.67;1.60;;;8.00;99.90;;;;;;2012400;29;20285;-76
2024/04/06 02:47:56;;;;;;;2.20;1.63;;;8.00;99.90;;;;;;2020596;29;20738;-76
2024/04/06 02:48:57;;;;;;;2.00;1.63;;;8.10;99.90;;;;;;2028549;29;20695;-76
2024/04/06 02:49:58;;;;;;;1.90;1.57;;;8.10;99.90;;;;;;2028970;29;20235;-76
2024/04/06 02:50:58;;;;;;;2.22;1.92;;;8.10;99.90;;;;;;2030573;29;20284;-76
2024/04/06 02:51:59;;;;;;;2.50;1.67;;;8.10;99.90;;;;;;2013096;29;20242;-76
2024/04/06 02:53:00;;;;;;;2.80;1.67;;;8.10;99.90;;;;;;2015330;29;20586;-76
2024/04/06 02:54:01;;;;;;;5.20;1.80;;;8.10;99.90;;;;;;2020781;29;20269;-76
2024/04/06 02:55:04;;;;;;;2.07;1.87;;;8.00;99.90;;;;;;2020531;29;20864;-76
2024/04/06 02:56:06;;;;;;;2.10;1.83;;;7.90;99.90;;;;;;2014245;29;20701;-76
2024/04/06 02:57:06;;;;;;;4.07;1.90;;;7.90;99.90;;;;;;2021639;29;20695;-76
2024/04/06 02:58:08;;;;;;;2.10;1.50;;;8.00;99.90;;;;;;2027881;29;20280;-76
2024/04/06 02:59:08;;;;;;;3.80;1.75;;;8.00;99.90;;;;;;2021740;29;20250;-76
2024/04/06 03:00:12;;;;;;;2.17;1.77;;;8.00;99.90;;;;;;2021252;29;20201;-76
2024/04/06 03:01:13;;;;;;;3.72;1.90;;;7.90;99.90;;;;;;2014612;29;20543;-76
2024/04/06 03:02:14;;;;;;;1.93;1.80;;;7.80;99.90;;;;;;2014334;29;20245;-76
2024/04/06 03:03:15;;;;;;;3.30;1.77;;;7.80;99.90;;;;;;2020962;29;20730;-76
2024/04/06 03:04:15;;;;;;;2.92;1.85;;;7.70;99.90;;;;;;2013013;29;20197;-76
2024/04/06 03:05:18;;;;;;;4.80;2.23;;;7.70;99.90;;;;;;2007316;29;20270;-76
2024/04/06 03:06:19;;;;;;;2.75;1.70;;;7.70;99.90;;;;;;2023679;29;20185;-76
2024/04/06 03:07:19;;;;;;;2.50;1.40;;;7.70;99.90;;;;;;2030748;29;21055;-76
2024/04/06 03:08:20;;;;;;;3.20;2.00;;;7.70;99.90;;;;;;2038064;29;20239;-76
2024/04/06 03:09:21;;;;;;;3.65;1.67;;;7.70;99.90;;;;;;2022624;29;20432;-76
2024/04/06 03:10:22;;;;;;;2.20;1.50;;;7.60;99.90;;;;;;2021717;29;20916;-76
2024/04/06 03:11:23;;;;;;;3.70;1.93;;;7.60;99.90;;;;;;2023012;29;20260;-74
2024/04/06 03:12:23;;;;;;;3.87;2.03;;;7.60;99.90;;;;;;2031963;29;20773;-75
2024/04/06 03:13:24;;;;;;;1.80;1.60;;;7.60;99.90;;;;;;2030832;29;20319;-76
2024/04/06 03:14:25;;;;;;;2.90;1.60;;;7.60;99.90;;;;;;2014741;29;20320;-76
2024/04/06 03:15:25;;;;;;;1.97;1.43;;;7.60;99.90;;;;;;2015230;29;20976;-76
2024/04/06 03:16:26;;;;;;;2.33;1.50;;;7.60;99.90;;;;;;2020742;29;20237;-76
2024/04/06 03:17:27;;;;;;;1.90;1.37;;;7.50;99.90;;;;;;2028192;29;20248;-76
2024/04/06 03:18:27;;;;;;;3.73;1.60;;;7.50;99.90;;;;;;2022416;29;20229;-76
2024/04/06 03:19:28;;;;;;;2.10;1.63;;;7.50;99.90;;;;;;2014881;29;20252;-76
2024/04/06 03:20:29;;;;;;;3.43;1.80;;;7.50;99.90;;;;;;2022866;29;20304;-76
2024/04/06 03:21:29;;;;;;;2.33;1.60;;;7.50;99.90;;;;;;2030280;29;20251;-76
2024/04/06 03:22:30;;;;;;;5.03;1.70;;;7.40;99.90;;;;;;2030401;29;20243;-76
2024/04/06 03:23:31;;;;;;;2.78;1.92;;;7.30;99.90;;;;;;2039413;29;20243;-76
2024/04/06 03:24:32;;;;;;;2.63;1.70;;;7.30;99.90;;;;;;2035755;29;20259;-76
2024/04/06 03:25:34;;;;;;;1.97;1.57;;;7.20;99.90;;;;;;2023380;29;20241;-76
2024/04/06 03:26:36;;;;;;;2.85;1.75;;;7.30;99.90;;;;;;2023622;29;20233;-76
2024/04/06 03:27:36;;;;;;;2.53;1.75;;;7.30;99.90;;;;;;2023471;29;20237;-76
2024/04/06 03:28:37;;;;;;;2.23;1.70;;;7.30;99.90;;;;;;2021081;29;20618;-76
2024/04/06 03:29:38;;;;;;;2.33;1.80;;;7.30;99.90;;;;;;2025953;29;20835;-76
2024/04/06 03:30:39;;;;;;;4.23;1.60;;;7.40;99.90;;;;;;2023914;29;20233;-76
2024/04/06 03:31:40;;;;;;;1.73;1.63;;;7.40;99.90;;;;;;2030491;29;20884;-76
2024/04/06 03:32:40;;;;;;;3.83;1.90;;;7.30;99.90;;;;;;2030851;29;20336;-76
2024/04/06 03:33:41;;;;;;;2.63;1.70;;;7.30;99.90;;;;;;2014527;29;20237;-76
2024/04/06 03:34:42;;;;;;;1.90;1.70;;;7.30;99.90;;;;;;2016267;29;20249;-76
2024/04/06 03:35:42;;;;;;;2.20;1.57;;;7.30;99.90;;;;;;2014905;29;20230;-76
2024/04/06 03:36:43;;;;;;;2.67;2.10;;;7.30;99.90;;;;;;2030599;29;20236;-76
2024/04/06 03:37:50;;;;;;;2.00;1.80;;;7.10;99.90;;;;;;2038057;29;20243;-76
2024/04/06 03:38:50;;;;;;;2.22;1.70;;;7.20;99.90;;;;;;2037066;29;20323;-76
2024/04/06 03:39:51;;;;;;;3.20;2.40;;;7.20;99.90;;;;;;2037953;29;20235;-76
2024/04/06 03:40:52;;;;;;;3.20;2.80;;;7.20;99.90;;;;;;2030084;29;20320;-76
2024/04/06 03:41:52;;;;;;;4.20;2.37;;;7.20;99.90;;;;;;2022739;29;20309;-76
2024/04/06 03:42:58;;;;;;;2.33;1.73;;;7.10;99.90;;;;;;2030273;29;20272;-76
2024/04/06 03:43:59;;;;;;;5.47;2.53;;;7.20;99.90;;;;;;2022274;29;20248;-76
2024/04/06 03:45:00;;;;;;;3.60;2.07;;;7.10;99.90;;;;;;2023547;29;20771;-76
2024/04/06 03:46:00;;;;;;;2.53;1.90;;;7.10;99.90;;;;;;2023759;29;20265;-77
2024/04/06 03:47:01;;;;;;;2.40;2.00;;;7.10;99.90;;;;;;2021883;29;21372;-75
2024/04/06 03:48:06;;;;;;;2.87;1.90;;;7.20;99.90;;;;;;2022725;29;20291;-76
2024/04/06 03:49:06;;;;;;;2.72;2.00;;;7.20;99.90;;;;;;2015175;29;20714;-76
2024/04/06 03:50:07;;;;;;;4.10;1.80;;;7.10;99.90;;;;;;2022417;29;20199;-76
2024/04/06 03:51:08;;;;;;;2.83;1.80;;;7.10;99.90;;;;;;2023041;29;20197;-76
2024/04/06 03:52:09;;;;;;;3.88;1.90;;;7.10;99.90;;;;;;2024036;29;20194;-76
2024/04/06 03:53:10;;;;;;;2.97;1.67;;;7.10;99.90;;;;;;2022751;29;20674;-76
2024/04/06 03:54:11;;;;;;;2.50;1.67;;;7.20;99.90;;;;;;2022935;29;20205;-76
2024/04/06 03:55:11;;;;;;;2.93;2.00;;;7.10;99.90;;;;;;2022648;29;20649;-76
2024/04/06 03:56:12;;;;;;;2.27;1.93;;;7.10;99.90;;;;;;2015494;29;20228;-76
2024/04/06 03:57:14;;;;;;;3.33;2.30;;;7.00;99.90;;;;;;2023308;29;20475;-76
2024/04/06 03:58:14;;;;;;;2.95;2.42;;;7.00;99.90;;;;;;2014766;29;20194;-76
2024/04/06 03:59:15;;;;;;;2.93;2.20;;;7.00;99.90;;;;;;2007864;29;20290;-75
2024/04/06 04:00:16;;;;;;;4.77;2.60;;;7.00;99.90;;;;;;2007638;29;20195;-76
2024/04/06 04:01:17;;;;;;;4.27;2.43;;;7.00;99.90;;;;;;2022543;29;20186;-76
2024/04/06 04:02:17;;;;;;;2.97;2.20;;;7.00;99.90;;;;;;2039558;29;20196;-76
2024/04/06 04:03:18;;;;;;;3.43;2.17;;;7.00;99.90;;;;;;2031253;29;20187;-76
2024/04/06 04:04:19;;;;;;;2.30;2.00;;;7.00;99.90;;;;;;2031348;29;20244;-76
2024/04/06 04:05:20;;;;;;;3.10;1.70;;;6.90;99.90;;;;;;2023392;29;21017;-76
2024/04/06 04:06:21;;;;;;;4.60;1.85;;;6.90;99.90;;;;;;2014466;29;21531;-77
2024/04/06 04:07:21;;;;;;;3.10;2.10;;;6.90;99.90;;;;;;2023180;29;20234;-76
2024/04/06 04:08:22;;;;;;;3.03;2.10;;;6.90;99.90;;;;;;2029684;29;20317;-75
2024/04/06 04:09:23;;;;;;;5.23;2.43;;;6.90;99.90;;;;;;2023547;29;20702;-76
2024/04/06 04:10:23;;;;;;;2.33;2.10;;;6.80;99.90;;;;;;2014523;29;20317;-76
2024/04/06 04:11:24;;;;;;;1.93;1.60;;;6.80;99.90;;;;;;2022877;29;20777;-76
2024/04/06 04:12:25;;;;;;;3.00;2.13;;;6.80;99.90;;;;;;2030818;29;20248;-75
2024/04/06 04:13:25;;;;;;;3.17;1.87;;;6.90;99.90;;;;;;2030277;29;20240;-75
2024/04/06 04:14:27;;;;;;;2.10;1.90;;;6.90;99.90;;;;;;2030381;29;20259;-76
2024/04/06 04:15:27;;;;;;;2.17;1.70;;;6.80;99.90;;;;;;2026617;29;20251;-75
2024/04/06 04:16:28;;;;;;;3.17;1.90;;;6.70;99.90;;;;;;2023638;29;20324;-76
2024/04/06 04:17:30;;;;;;;2.10;1.90;;;6.60;99.90;;;;;;2021757;29;20551;-76
2024/04/06 04:18:30;;;;;;;2.90;1.98;;;6.70;99.90;;;;;;2023074;29;20234;-75
2024/04/06 04:19:31;;;;;;;2.17;1.53;;;6.70;99.90;;;;;;2023739;29;20602;-76
2024/04/06 04:20:32;;;;;;;2.77;2.27;;;6.70;99.90;;;;;;2022329;29;20237;-76
2024/04/06 04:21:33;;;;;;;3.65;2.42;;;6.70;99.90;;;;;;2019068;29;20272;-76
2024/04/06 04:22:34;;;;;;;2.60;1.53;;;6.70;99.90;;;;;;2026684;29;20233;-76
2024/04/06 04:23:34;;;;;;;1.47;1.37;;;6.70;99.90;;;;;;2025877;29;20317;-76
2024/04/06 04:24:35;;;;;;;2.00;1.60;;;6.70;99.90;;;;;;2026420;29;20237;-77
2024/04/06 04:25:36;;;;;;;2.20;1.97;;;6.70;99.90;;;;;;2025233;29;20236;-76
2024/04/06 04:26:37;;;;;;;2.57;1.50;;;6.70;99.90;;;;;;2025878;29;20324;-77
2024/04/06 04:27:38;;;;;;;2.53;1.70;;;6.70;99.90;;;;;;2029885;29;20232;-76
2024/04/06 04:28:38;;;;;;;4.20;1.57;;;6.70;99.90;;;;;;2031296;29;20731;-76
2024/04/06 04:29:39;;;;;;;3.00;2.03;;;6.70;99.90;;;;;;2022172;29;20497;-76
2024/04/06 04:30:41;;;;;;;3.80;2.20;;;6.70;99.90;;;;;;2008283;29;20283;-76
2024/04/06 04:31:42;;;;;;;2.58;1.98;;;6.70;99.90;;;;;;2005197;29;20237;-76
2024/04/06 04:32:42;;;;;;;3.97;1.80;;;6.70;99.90;;;;;;2023456;29;20226;-76
2024/04/06 04:33:44;;;;;;;2.77;1.77;;;6.70;99.90;;;;;;2029533;29;20288;-76
2024/04/06 04:34:44;;;;;;;2.85;2.22;;;6.70;99.90;;;;;;2030693;29;20240;-76
2024/04/06 04:35:45;;;;;;;3.40;2.00;;;6.70;99.90;;;;;;2029993;29;20237;-77
2024/04/06 04:36:46;;;;;;;2.03;1.40;;;6.70;99.90;;;;;;2030816;29;20631;-76
2024/04/06 04:37:47;;;;;;;2.23;1.30;;;6.60;99.90;;;;;;2015532;29;20263;-76
2024/04/06 04:38:47;;;;;;;3.30;1.80;;;6.50;99.90;;;;;;2021377;29;20324;-76
2024/04/06 04:39:48;;;;;;;3.80;2.23;;;6.50;99.90;;;;;;2038400;29;20232;-76
2024/04/06 04:40:48;;;;;;;1.93;1.63;;;6.60;99.90;;;;;;2021818;29;20738;-76
2024/04/06 04:41:51;;;;;;;2.20;1.70;;;6.60;99.90;;;;;;2023953;29;20332;-76
2024/04/06 04:42:52;;;;;;;2.92;1.58;;;6.60;99.90;;;;;;2022205;29;20603;-76
2024/04/06 04:43:53;;;;;;;4.03;1.97;;;6.60;99.90;;;;;;2029268;29;20240;-76
2024/04/06 04:45:04;;;;;;;5.30;2.13;;;6.50;99.90;;;;;;2036999;29;20331;-76
2024/04/06 04:46:04;;;;;;;2.88;1.92;;;6.40;99.90;;;;;;2033458;29;20310;-76
2024/04/06 04:47:05;;;;;;;2.53;2.07;;;6.50;99.90;;;;;;2029567;29;20685;-77
2024/04/06 04:48:06;;;;;;;3.77;1.83;;;6.60;99.90;;;;;;2027035;29;20189;-76
2024/04/06 04:49:07;;;;;;;2.73;1.90;;;6.60;99.90;;;;;;2031093;29;20203;-76
2024/04/06 04:50:11;;;;;;;2.63;1.70;;;6.50;99.90;;;;;;2029319;29;20681;-76
2024/04/06 04:51:12;;;;;;;2.45;1.85;;;6.50;99.90;;;;;;2029678;29;20189;-76
2024/04/06 04:52:12;;;;;;;1.77;1.40;;;6.60;99.90;;;;;;2021980;29;20258;-76
2024/04/06 04:53:13;;;;;;;2.27;1.90;;;6.50;99.90;;;;;;2028464;29;20197;-76
2024/04/06 04:54:14;;;;;;;2.03;1.70;;;6.50;99.90;;;;;;2030983;29;20281;-77
2024/04/06 04:55:16;;;;;;;3.78;1.88;;;6.50;99.90;;;;;;2028280;29;20193;-76
2024/04/06 04:56:17;;;;;;;2.90;1.85;;;6.50;99.90;;;;;;2021399;29;20193;-76
2024/04/06 04:57:18;;;;;;;2.25;1.70;;;6.50;99.90;;;;;;2013002;29;20225;-76
2024/04/06 04:58:18;;;;;;;2.50;1.67;;;6.50;99.90;;;;;;2021034;29;20585;-75
2024/04/06 04:59:19;;;;;;;2.30;2.00;;;6.60;99.90;;;;;;2021035;29;20308;-75
2024/04/06 05:00:20;;;;;;;4.80;2.00;;;6.50;99.90;;;;;;2037153;29;20271;-76
2024/04/06 05:01:21;;;;;;;2.60;1.57;;;6.50;99.90;;;;;;2038149;29;20293;-76
2024/04/06 05:02:21;;;;;;;2.00;1.47;;;6.50;99.90;;;;;;2037958;29;20894;-77
2024/04/06 05:03:22;;;;;;;2.77;1.70;;;6.50;99.90;;;;;;2030584;29;20229;-76
2024/04/06 05:04:23;;;;;;;1.87;1.43;;;6.50;99.90;;;;;;2021875;29;20345;-77
2024/04/06 05:05:23;;;;;;;2.20;1.80;;;6.50;99.90;;;;;;2014811;29;20501;-77
2024/04/06 05:06:24;;;;;;;2.33;1.60;;;6.60;99.90;;;;;;2021897;29;20320;-77
2024/04/06 05:07:25;;;;;;;1.93;1.57;;;6.50;99.90;;;;;;2025671;29;20245;-76
2024/04/06 05:08:25;;;;;;;4.13;1.73;;;6.50;99.90;;;;;;2025398;29;20234;-77
2024/04/06 05:09:26;;;;;;;3.73;1.90;;;6.60;99.90;;;;;;2024896;29;20233;-76
2024/04/06 05:10:27;;;;;;;4.50;1.53;;;6.60;99.90;;;;;;2026425;29;20653;-76
2024/04/06 05:11:28;;;;;;;2.70;1.67;;;6.60;99.90;;;;;;2022492;29;20281;-77
2024/04/06 05:12:28;;;;;;;2.03;1.53;;;6.50;99.90;;;;;;2022124;29;20236;-76
2024/04/06 05:13:29;;;;;;;2.80;1.50;;;6.60;99.90;;;;;;2037267;29;20772;-76
2024/04/06 05:14:30;;;;;;;2.93;2.00;;;6.60;99.90;;;;;;2030767;29;20268;-76
2024/04/06 05:15:30;;;;;;;3.30;2.07;;;6.60;99.90;;;;;;2021201;29;20268;-76
2024/04/06 05:16:31;;;;;;;1.87;1.40;;;6.60;99.90;;;;;;2021517;29;20667;-76
2024/04/06 05:17:32;;;;;;;3.60;1.60;;;6.60;99.90;;;;;;2014317;29;20226;-77
2024/04/06 05:18:33;;;;;;;3.73;2.33;;;6.50;99.90;;;;;;2027605;29;20727;-76
2024/04/06 05:19:35;;;;;;;2.13;1.80;;;6.60;99.90;;;;;;2015067;29;20296;-76
2024/04/06 05:20:35;;;;;;;2.13;1.70;;;6.60;99.90;;;;;;2014303;29;20242;-76
2024/04/06 05:21:36;;;;;;;2.83;1.57;;;6.70;99.90;;;;;;2030224;29;20271;-76